Yu Xian, China
Current Conditions -  °F | °C
As of 4:00 PM on Saturday 25 Oct 2014 (Local Time) from ZBSJ Reporting Station
Moderate Fog Moderate Fog  
Wind Chill: 61°   Ceiling: Unl
Heat Index: 61°   Visibility: 0.43mi
Dew Point: 59°   Wind: 4mph
Humidity: 94%   Direction: 130°SE
Pressure: 29.83"   Gusts: NA
Location:  39.83°N, 114.57°E
Report Text: ZBSJ 250800Z 13002MPS 0700 R15/0700N FG NSC 16/15 Q1010 NOSIG
Loading
Personal Weather Stations






























Interactive Weather Map
Tropical Storm Tracking
New forecast layout! Learn more

10-Day Weather Forecast

Advertisements
Track Severe Weather on mobile